sensor_id;sensor_type;location;lat;lon;timestamp;pressure;altitude;pressure_sealevel;temperature;humidity
59315;BME280;46521;50.160;20.802;2023-02-03T00:11:01;100115.66;;;0.04;84.52
59315;BME280;46521;50.160;20.802;2023-02-03T00:21:03;100109.16;;;-0.03;84.47
59315;BME280;46521;50.160;20.802;2023-02-03T00:31:05;100119.81;;;-0.08;84.06
59315;BME280;46521;50.160;20.802;2023-02-03T00:41:06;100121.56;;;-0.08;83.97
59315;BME280;46521;50.160;20.802;2023-02-03T00:51:08;100139.59;;;-0.05;83.51
59315;BME280;46521;50.160;20.802;2023-02-03T01:01:09;100161.51;;;-0.09;83.57
59315;BME280;46521;50.160;20.802;2023-02-03T01:11:23;100179.02;;;-0.13;83.76
59315;BME280;46521;50.160;20.802;2023-02-03T01:21:25;100168.80;;;-0.16;83.89
59315;BME280;46521;50.160;20.802;2023-02-03T01:41:31;100183.33;;;-0.28;83.54
59315;BME280;46521;50.160;20.802;2023-02-03T01:51:33;100184.50;;;-0.33;83.66
59315;BME280;46521;50.160;20.802;2023-02-03T02:01:35;100181.33;;;-0.39;83.68
59315;BME280;46521;50.160;20.802;2023-02-03T02:11:37;100182.49;;;-0.44;83.40
59315;BME280;46521;50.160;20.802;2023-02-03T02:32:17;100164.56;;;-0.65;82.77
59315;BME280;46521;50.160;20.802;2023-02-03T02:42:48;100159.70;;;-0.71;82.95
59315;BME280;46521;50.160;20.802;2023-02-03T02:52:52;100190.13;;;-0.73;82.90
59315;BME280;46521;50.160;20.802;2023-02-03T03:02:54;100201.27;;;-0.71;82.70
59315;BME280;46521;50.160;20.802;2023-02-03T03:13:04;100203.53;;;-0.65;82.45
59315;BME280;46521;50.160;20.802;2023-02-03T03:23:15;100180.89;;;-0.63;82.54
59315;BME280;46521;50.160;20.802;2023-02-03T03:33:19;100165.23;;;-0.61;82.09
59315;BME280;46521;50.160;20.802;2023-02-03T03:43:26;100173.30;;;-0.66;81.85
59315;BME280;46521;50.160;20.802;2023-02-03T03:53:57;100189.88;;;-0.68;81.37
59315;BME280;46521;50.160;20.802;2023-02-03T04:04:06;100182.50;;;-0.76;81.63
59315;BME280;46521;50.160;20.802;2023-02-03T04:14:09;100167.24;;;-0.82;81.27
59315;BME280;46521;50.160;20.802;2023-02-03T04:24:11;100165.55;;;-0.83;81.30
59315;BME280;46521;50.160;20.802;2023-02-03T04:34:13;100146.80;;;-0.88;80.86
59315;BME280;46521;50.160;20.802;2023-02-03T04:44:14;100154.00;;;-0.94;81.18
59315;BME280;46521;50.160;20.802;2023-02-03T04:54:16;100157.67;;;-0.98;80.92
59315;BME280;46521;50.160;20.802;2023-02-03T05:04:17;100166.41;;;-0.99;80.70
59315;BME280;46521;50.160;20.802;2023-02-03T05:14:19;100166.27;;;-1.13;80.74
59315;BME280;46521;50.160;20.802;2023-02-03T05:24:20;100156.52;;;-1.25;80.96
59315;BME280;46521;50.160;20.802;2023-02-03T05:34:23;100162.66;;;-1.27;81.64
59315;BME280;46521;50.160;20.802;2023-02-03T05:44:26;100144.89;;;-1.34;81.43
59315;BME280;46521;50.160;20.802;2023-02-03T05:54:28;100140.69;;;-1.37;81.23
59315;BME280;46521;50.160;20.802;2023-02-03T06:04:29;100140.28;;;-1.29;81.49
59315;BME280;46521;50.160;20.802;2023-02-03T06:14:31;100127.98;;;-1.25;81.25
59315;BME280;46521;50.160;20.802;2023-02-03T06:24:32;100113.77;;;-1.18;81.31
59315;BME280;46521;50.160;20.802;2023-02-03T06:34:34;100090.09;;;-1.12;81.33
59315;BME280;46521;50.160;20.802;2023-02-03T06:44:35;100081.97;;;-1.06;81.29
59315;BME280;46521;50.160;20.802;2023-02-03T06:54:37;100069.39;;;-0.82;81.03
59315;BME280;46521;50.160;20.802;2023-02-03T07:04:38;100060.66;;;-0.65;81.00
59315;BME280;46521;50.160;20.802;2023-02-03T07:14:40;100048.27;;;-0.29;80.45
59315;BME280;46521;50.160;20.802;2023-02-03T07:24:41;100041.37;;;0.00;80.37
59315;BME280;46521;50.160;20.802;2023-02-03T07:34:43;100053.31;;;-0.12;80.51
59315;BME280;46521;50.160;20.802;2023-02-03T07:44:44;100034.38;;;-0.14;80.60
59315;BME280;46521;50.160;20.802;2023-02-03T07:54:46;100026.14;;;0.08;80.44
59315;BME280;46521;50.160;20.802;2023-02-03T08:04:47;100004.48;;;0.37;80.12
59315;BME280;46521;50.160;20.802;2023-02-03T08:14:49;100002.88;;;0.48;79.49
59315;BME280;46521;50.160;20.802;2023-02-03T08:24:50;99976.86;;;0.48;79.23
59315;BME280;46521;50.160;20.802;2023-02-03T08:34:52;99965.43;;;0.51;78.87
59315;BME280;46521;50.160;20.802;2023-02-03T08:44:54;99946.58;;;0.47;78.93
59315;BME280;46521;50.160;20.802;2023-02-03T08:54:55;99937.22;;;0.30;78.21
59315;BME280;46521;50.160;20.802;2023-02-03T09:04:57;99927.09;;;0.26;78.20
59315;BME280;46521;50.160;20.802;2023-02-03T09:14:58;99898.64;;;0.37;78.28
59315;BME280;46521;50.160;20.802;2023-02-03T09:25:00;99888.94;;;0.53;78.23
59315;BME280;46521;50.160;20.802;2023-02-03T09:35:01;99866.11;;;0.84;78.04
59315;BME280;46521;50.160;20.802;2023-02-03T09:55:18;99813.02;;;1.51;77.09
59315;BME280;46521;50.160;20.802;2023-02-03T10:05:39;99792.03;;;1.66;76.15
59315;BME280;46521;50.160;20.802;2023-02-03T10:16:14;99759.81;;;1.67;75.87
59315;BME280;46521;50.160;20.802;2023-02-03T10:26:20;99723.48;;;1.76;75.75
59315;BME280;46521;50.160;20.802;2023-02-03T10:36:33;99697.19;;;1.79;74.69
59315;BME280;46521;50.160;20.802;2023-02-03T10:46:42;99662.28;;;1.69;74.39
59315;BME280;46521;50.160;20.802;2023-02-03T10:56:45;99640.97;;;1.75;74.18
59315;BME280;46521;50.160;20.802;2023-02-03T11:06:54;99624.28;;;1.78;73.82
59315;BME280;46521;50.160;20.802;2023-02-03T11:16:56;99589.79;;;1.74;73.75
59315;BME280;46521;50.160;20.802;2023-02-03T11:27:08;99576.86;;;1.73;72.46
59315;BME280;46521;50.160;20.802;2023-02-03T11:37:39;99552.41;;;1.62;72.86
59315;BME280;46521;50.160;20.802;2023-02-03T12:30:17;99364.88;;;1.14;72.56
59315;BME280;46521;50.160;20.802;2023-02-03T12:50:38;99301.41;;;0.57;74.10
59315;BME280;46521;50.160;20.802;2023-02-03T13:00:53;99280.27;;;0.38;75.08
59315;BME280;46521;50.160;20.802;2023-02-03T13:11:32;99247.48;;;0.24;75.85
59315;BME280;46521;50.160;20.802;2023-02-03T13:21:36;99212.63;;;0.02;76.78
59315;BME280;46521;50.160;20.802;2023-02-03T13:32:02;99165.46;;;-0.29;77.46
59315;BME280;46521;50.160;20.802;2023-02-03T13:42:32;99137.98;;;-0.44;78.00
59315;BME280;46521;50.160;20.802;2023-02-03T13:52:39;99091.88;;;-0.53;78.19
59315;BME280;46521;50.160;20.802;2023-02-03T14:02:50;99061.78;;;-0.56;78.48
59315;BME280;46521;50.160;20.802;2023-02-03T14:12:53;99020.82;;;-0.52;78.45
59315;BME280;46521;50.160;20.802;2023-02-03T14:33:01;98959.53;;;-0.55;79.06
59315;BME280;46521;50.160;20.802;2023-02-03T14:54:02;98895.28;;;-0.64;79.60
59315;BME280;46521;50.160;20.802;2023-02-03T15:14:24;98842.41;;;-0.63;79.90
59315;BME280;46521;50.160;20.802;2023-02-03T15:24:34;98826.95;;;-0.65;80.20
59315;BME280;46521;50.160;20.802;2023-02-03T15:34:51;98801.67;;;-0.63;80.43
59315;BME280;46521;50.160;20.802;2023-02-03T15:45:01;98779.03;;;-0.61;80.53
59315;BME280;46521;50.160;20.802;2023-02-03T16:05:35;98746.31;;;-0.52;81.27
59315;BME280;46521;50.160;20.802;2023-02-03T16:15:39;98738.64;;;-0.42;81.55
59315;BME280;46521;50.160;20.802;2023-02-03T16:46:53;98720.80;;;-0.35;82.34
59315;BME280;46521;50.160;20.802;2023-02-03T16:57:13;98699.52;;;-0.29;82.85
59315;BME280;46521;50.160;20.802;2023-02-03T17:17:39;98679.63;;;-0.19;83.01
59315;BME280;46521;50.160;20.802;2023-02-03T18:09:55;98741.04;;;0.26;83.91
59315;BME280;46521;50.160;20.802;2023-02-03T18:40:31;98788.91;;;0.56;84.34
59315;BME280;46521;50.160;20.802;2023-02-03T18:50:33;98785.55;;;0.65;84.68
59315;BME280;46521;50.160;20.802;2023-02-03T19:11:09;98790.95;;;0.73;84.61
59315;BME280;46521;50.160;20.802;2023-02-03T19:21:12;98798.00;;;0.82;84.64
59315;BME280;46521;50.160;20.802;2023-02-03T19:31:14;98794.96;;;0.77;84.31
59315;BME280;46521;50.160;20.802;2023-02-03T19:41:16;98809.86;;;0.75;84.53
59315;BME280;46521;50.160;20.802;2023-02-03T19:51:17;98806.69;;;0.71;84.61
59315;BME280;46521;50.160;20.802;2023-02-03T20:01:20;98825.03;;;0.70;84.93
59315;BME280;46521;50.160;20.802;2023-02-03T20:11:23;98814.19;;;0.65;84.80
59315;BME280;46521;50.160;20.802;2023-02-03T20:21:25;98811.58;;;0.65;84.84
59315;BME280;46521;50.160;20.802;2023-02-03T20:31:26;98808.73;;;0.68;84.99
59315;BME280;46521;50.160;20.802;2023-02-03T20:41:28;98812.02;;;0.70;85.39
59315;BME280;46521;50.160;20.802;2023-02-03T20:51:29;98820.86;;;0.79;85.70
59315;BME280;46521;50.160;20.802;2023-02-03T21:01:31;98813.63;;;0.82;85.20
59315;BME280;46521;50.160;20.802;2023-02-03T21:11:33;98813.43;;;0.74;85.16
59315;BME280;46521;50.160;20.802;2023-02-03T21:21:36;98825.16;;;0.68;85.31
59315;BME280;46521;50.160;20.802;2023-02-03T21:31:39;98819.39;;;0.65;85.47
59315;BME280;46521;50.160;20.802;2023-02-03T21:41:41;98823.18;;;0.61;85.72
59315;BME280;46521;50.160;20.802;2023-02-03T21:51:44;98839.77;;;0.60;85.86
59315;BME280;46521;50.160;20.802;2023-02-03T22:01:46;98845.66;;;0.62;85.98
59315;BME280;46521;50.160;20.802;2023-02-03T22:11:49;98844.59;;;0.64;85.95
59315;BME280;46521;50.160;20.802;2023-02-03T22:21:50;98845.66;;;0.62;85.67
59315;BME280;46521;50.160;20.802;2023-02-03T22:31:53;98847.57;;;0.60;85.84
59315;BME280;46521;50.160;20.802;2023-02-03T22:41:54;98844.25;;;0.58;86.08
59315;BME280;46521;50.160;20.802;2023-02-03T22:51:56;98848.06;;;0.53;86.09
59315;BME280;46521;50.160;20.802;2023-02-03T23:01:57;98839.78;;;0.48;86.20
59315;BME280;46521;50.160;20.802;2023-02-03T23:11:59;98840.75;;;0.47;86.33
59315;BME280;46521;50.160;20.802;2023-02-03T23:22:00;98838.39;;;0.44;86.28
59315;BME280;46521;50.160;20.802;2023-02-03T23:32:06;98820.63;;;0.49;86.27
59315;BME280;46521;50.160;20.802;2023-02-03T23:42:08;98814.48;;;0.50;86.09
